createdAt,value
2017-05-01T00:00:29.690Z,996.93
2017-05-01T00:01:31.116Z,996.92
2017-05-01T00:02:32.537Z,996.94
2017-05-01T00:03:33.966Z,996.95
2017-05-01T00:04:35.393Z,996.94
2017-05-01T00:05:36.827Z,996.90
2017-05-01T00:06:38.249Z,996.91
2017-05-01T00:07:39.672Z,996.89
2017-05-01T00:08:41.092Z,996.88
2017-05-01T00:09:42.523Z,996.85
2017-05-01T00:10:43.972Z,996.84
2017-05-01T00:11:45.401Z,996.81
2017-05-01T00:12:46.835Z,996.80
2017-05-01T00:13:48.866Z,996.81
2017-05-01T00:14:50.289Z,996.84
2017-05-01T00:15:51.722Z,996.88
2017-05-01T00:16:53.147Z,996.86
2017-05-01T00:17:54.573Z,996.83
2017-05-01T00:18:56.530Z,996.79
2017-05-01T00:19:57.370Z,996.80
2017-05-01T00:20:58.792Z,996.85
2017-05-01T00:22:00.224Z,996.82
2017-05-01T00:23:01.648Z,996.82
2017-05-01T00:24:03.068Z,996.81
2017-05-01T00:25:04.496Z,996.82
2017-05-01T00:26:05.927Z,996.87
2017-05-01T00:27:07.356Z,996.84
2017-05-01T00:28:08.782Z,996.85
2017-05-01T00:29:10.211Z,996.84
2017-05-01T00:30:11.641Z,996.89
2017-05-01T00:31:13.066Z,996.89
2017-05-01T00:32:14.490Z,996.85
2017-05-01T00:33:15.911Z,996.86
2017-05-01T00:34:17.340Z,996.87
2017-05-01T00:35:18.765Z,996.89
2017-05-01T00:36:20.197Z,996.87
2017-05-01T00:37:21.622Z,996.89
2017-05-01T00:38:23.057Z,996.85
2017-05-01T00:39:24.523Z,996.81
2017-05-01T00:40:25.912Z,996.86
2017-05-01T00:41:27.340Z,996.84
2017-05-01T00:42:28.768Z,996.85
2017-05-01T00:43:30.192Z,996.88
2017-05-01T00:44:31.620Z,996.89
2017-05-01T00:45:33.047Z,996.80
2017-05-01T00:46:34.473Z,996.86
2017-05-01T00:47:35.899Z,996.81
2017-05-01T00:48:37.333Z,996.85
2017-05-01T00:49:38.760Z,996.85
2017-05-01T00:50:40.190Z,996.81
2017-05-01T00:51:41.607Z,996.79
2017-05-01T00:52:43.038Z,996.84
2017-05-01T00:53:45.225Z,996.81
2017-05-01T00:54:46.663Z,996.86
2017-05-01T00:55:48.093Z,996.84
2017-05-01T00:56:49.519Z,996.84
2017-05-01T00:57:50.942Z,996.85
2017-05-01T00:58:52.364Z,996.81
2017-05-01T00:59:53.798Z,996.84
2017-05-01T01:00:55.218Z,996.84
2017-05-01T01:01:56.637Z,996.82
2017-05-01T01:02:58.070Z,996.81
2017-05-01T01:03:59.494Z,996.82
2017-05-01T01:05:00.924Z,996.79
2017-05-01T01:06:02.353Z,996.78
2017-05-01T01:07:03.778Z,996.81
2017-05-01T01:08:05.203Z,996.79
2017-05-01T01:09:06.637Z,996.79
2017-05-01T01:10:08.058Z,996.83
2017-05-01T01:11:09.486Z,996.77
2017-05-01T01:12:10.913Z,996.79
2017-05-01T01:13:12.341Z,996.75
2017-05-01T01:14:14.645Z,996.79
2017-05-01T01:15:16.075Z,996.80
2017-05-01T01:16:17.505Z,996.79
2017-05-01T01:17:19.865Z,996.75
2017-05-01T01:18:21.290Z,996.80
2017-05-01T01:19:22.719Z,996.79
2017-05-01T01:20:24.139Z,996.79
2017-05-01T01:21:25.555Z,996.78
2017-05-01T01:22:26.988Z,996.75
2017-05-01T01:23:28.422Z,996.73
2017-05-01T01:24:29.844Z,996.75
2017-05-01T01:25:31.270Z,996.72
2017-05-01T01:26:32.703Z,996.72
2017-05-01T01:27:34.836Z,996.74
2017-05-01T01:28:36.260Z,996.66
2017-05-01T01:29:37.686Z,996.72
2017-05-01T01:30:39.109Z,996.73
2017-05-01T01:31:40.535Z,996.73
2017-05-01T01:32:41.960Z,996.72
2017-05-01T01:33:43.383Z,996.71
2017-05-01T01:34:44.825Z,996.75
2017-05-01T01:35:46.244Z,996.74
2017-05-01T01:36:47.670Z,996.65
2017-05-01T01:37:49.104Z,996.63
2017-05-01T01:38:50.528Z,996.59
2017-05-01T01:39:51.960Z,996.59
2017-05-01T01:40:53.381Z,996.61
2017-05-01T01:41:54.815Z,996.62
2017-05-01T01:42:56.240Z,996.59
2017-05-01T01:43:57.665Z,996.65
2017-05-01T01:44:59.086Z,996.66
2017-05-01T01:46:00.511Z,996.67
2017-05-01T01:47:01.936Z,996.65
2017-05-01T01:48:03.365Z,996.64
2017-05-01T01:49:04.786Z,996.69
2017-05-01T01:50:06.208Z,996.67
2017-05-01T01:51:07.636Z,996.70
2017-05-01T01:52:09.061Z,996.73
2017-05-01T01:53:10.486Z,996.73
2017-05-01T01:54:11.908Z,996.74
2017-05-01T01:55:13.330Z,996.75
2017-05-01T01:56:15.269Z,996.74
2017-05-01T01:57:17.435Z,996.72
2017-05-01T01:58:18.872Z,996.71
2017-05-01T01:59:20.298Z,996.70
2017-05-01T02:00:21.729Z,996.73
2017-05-01T02:01:23.158Z,996.68
2017-05-01T02:02:24.583Z,996.69
2017-05-01T02:03:26.034Z,996.67
2017-05-01T02:04:27.437Z,996.68
2017-05-01T02:05:28.865Z,996.66
2017-05-01T02:06:30.290Z,996.65
2017-05-01T02:07:31.711Z,996.63
2017-05-01T02:08:33.145Z,996.64
2017-05-01T02:09:34.569Z,996.68
2017-05-01T02:10:35.992Z,996.65
2017-05-01T02:11:37.419Z,996.64
2017-05-01T02:12:38.882Z,996.64
2017-05-01T02:13:40.276Z,996.65
2017-05-01T02:14:41.705Z,996.69
2017-05-01T02:15:43.131Z,996.68
2017-05-01T02:16:44.553Z,996.59
2017-05-01T02:17:45.978Z,996.67
2017-05-01T02:18:47.410Z,996.62
2017-05-01T02:19:48.847Z,996.65
2017-05-01T02:20:50.271Z,996.64
2017-05-01T02:21:51.697Z,996.62
2017-05-01T02:22:53.134Z,996.66
2017-05-01T02:23:54.571Z,996.67
2017-05-01T02:24:56.002Z,996.65
2017-05-01T02:25:57.416Z,996.64
2017-05-01T02:26:58.870Z,996.67
2017-05-01T02:28:00.271Z,996.64
2017-05-01T02:29:01.725Z,996.70
2017-05-01T02:30:03.150Z,996.72
2017-05-01T02:31:04.573Z,996.73
2017-05-01T02:32:06.001Z,996.76
2017-05-01T02:33:07.430Z,996.77
2017-05-01T02:34:09.623Z,996.88
2017-05-01T02:35:11.047Z,996.89
2017-05-01T02:36:12.476Z,996.91
2017-05-01T02:37:13.896Z,996.94
2017-05-01T02:38:15.328Z,996.99
2017-05-01T02:39:17.342Z,997.07
2017-05-01T02:40:18.765Z,997.11
2017-05-01T02:41:20.198Z,997.13
2017-05-01T02:42:21.624Z,997.15
2017-05-01T02:43:23.051Z,997.12
2017-05-01T02:44:24.474Z,997.09
2017-05-01T02:45:25.911Z,997.10
2017-05-01T02:46:27.341Z,997.12
2017-05-01T02:47:28.770Z,997.10
2017-05-01T02:48:30.190Z,997.09
2017-05-01T02:49:31.616Z,997.07
2017-05-01T02:50:33.043Z,997.04
2017-05-01T02:51:34.497Z,997.00
2017-05-01T02:52:35.892Z,997.04
2017-05-01T02:53:37.320Z,997.01
2017-05-01T02:54:38.744Z,996.95
2017-05-01T02:55:40.176Z,996.98
2017-05-01T02:56:41.637Z,996.98
2017-05-01T02:57:43.111Z,997.00
2017-05-01T02:58:44.544Z,996.99
2017-05-01T02:59:45.973Z,996.98
2017-05-01T03:00:47.398Z,997.02
2017-05-01T03:01:48.854Z,997.00
2017-05-01T03:02:50.282Z,997.03
2017-05-01T03:03:51.708Z,997.05
2017-05-01T03:04:53.237Z,997.06
2017-05-01T03:05:54.664Z,997.05
2017-05-01T03:06:56.097Z,997.07
2017-05-01T03:07:57.573Z,997.09
2017-05-01T03:08:58.995Z,997.11
2017-05-01T03:10:00.424Z,997.11
2017-05-01T03:11:01.847Z,997.16
2017-05-01T03:12:03.273Z,997.09
2017-05-01T03:13:04.697Z,997.12
2017-05-01T03:14:06.122Z,997.14
2017-05-01T03:15:07.563Z,997.19
2017-05-01T03:16:08.991Z,997.17
2017-05-01T03:17:10.420Z,997.16
2017-05-01T03:18:11.844Z,997.12
2017-05-01T03:19:13.369Z,997.14
2017-05-01T03:20:14.799Z,997.14
2017-05-01T03:21:16.237Z,997.14
2017-05-01T03:22:17.657Z,997.17
2017-05-01T03:23:19.177Z,997.16
2017-05-01T03:24:20.596Z,997.16
2017-05-01T03:25:22.029Z,997.16
2017-05-01T03:26:23.449Z,997.21
2017-05-01T03:27:24.886Z,997.14
2017-05-01T03:28:26.316Z,997.14
2017-05-01T03:29:27.740Z,997.18
2017-05-01T03:30:29.265Z,997.14
2017-05-01T03:31:30.678Z,997.14
2017-05-01T03:32:32.116Z,997.13
2017-05-01T03:33:33.628Z,997.14
2017-05-01T03:34:35.058Z,997.16
2017-05-01T03:35:36.481Z,997.13
2017-05-01T03:36:37.912Z,997.15
2017-05-01T03:37:39.348Z,997.14
2017-05-01T03:38:40.774Z,997.14
2017-05-01T03:39:42.212Z,997.16
2017-05-01T03:40:43.631Z,997.16
2017-05-01T03:41:45.057Z,997.22
2017-05-01T03:42:46.481Z,997.23
2017-05-01T03:43:47.913Z,997.23
2017-05-01T03:44:49.338Z,997.20
2017-05-01T03:45:50.758Z,997.20
2017-05-01T03:46:52.187Z,997.19
2017-05-01T03:47:53.614Z,997.24
2017-05-01T03:50:20.654Z,997.19
2017-05-01T03:51:22.079Z,997.19
2017-05-01T03:52:23.512Z,997.22
2017-05-01T03:53:24.934Z,997.25
2017-05-01T03:54:26.360Z,997.26
2017-05-01T03:55:27.790Z,997.21
2017-05-01T03:56:29.214Z,997.23
2017-05-01T03:57:30.635Z,997.22
2017-05-01T03:58:32.065Z,997.28
2017-05-01T03:59:33.499Z,997.27
2017-05-01T04:00:35.663Z,997.26
2017-05-01T04:01:37.092Z,997.31
2017-05-01T04:02:38.517Z,997.29
2017-05-01T04:03:40.002Z,997.30
2017-05-01T04:04:41.427Z,997.31
2017-05-01T04:05:42.853Z,997.30
2017-05-01T04:06:44.279Z,997.38
2017-05-01T04:07:45.709Z,997.37
2017-05-01T04:08:47.134Z,997.38
2017-05-01T04:09:48.557Z,997.34
2017-05-01T04:10:49.996Z,997.37
2017-05-01T04:11:51.420Z,997.39
2017-05-01T04:12:52.901Z,997.43
2017-05-01T04:13:54.330Z,997.42
2017-05-01T04:14:55.755Z,997.45
2017-05-01T04:15:58.124Z,997.43
2017-05-01T04:16:59.553Z,997.48
2017-05-01T04:18:00.982Z,997.43
2017-05-01T04:19:02.407Z,997.45
2017-05-01T04:20:03.838Z,997.47
2017-05-01T04:21:05.270Z,997.46
2017-05-01T04:22:06.743Z,997.45
2017-05-01T04:23:08.167Z,997.46
2017-05-01T04:24:10.165Z,997.42
2017-05-01T04:25:11.589Z,997.50
2017-05-01T04:26:13.018Z,997.49
2017-05-01T04:27:14.441Z,997.48
2017-05-01T04:28:15.869Z,997.49
2017-05-01T04:29:17.305Z,997.51
2017-05-01T04:30:18.731Z,997.54
2017-05-01T04:31:20.158Z,997.53
2017-05-01T04:32:21.590Z,997.55
2017-05-01T04:33:23.025Z,997.53
2017-05-01T04:34:24.450Z,997.52
2017-05-01T04:35:25.883Z,997.56
2017-05-01T04:36:27.307Z,997.58
2017-05-01T04:37:29.566Z,997.61
2017-05-01T04:38:30.992Z,997.55
2017-05-01T04:39:32.416Z,997.58
2017-05-01T04:40:33.851Z,997.58
2017-05-01T04:41:35.297Z,997.56
2017-05-01T04:42:36.729Z,997.58
2017-05-01T04:43:38.155Z,997.58
2017-05-01T04:44:39.577Z,997.60
2017-05-01T04:45:41.957Z,997.54
2017-05-01T04:46:43.387Z,997.56
2017-05-01T04:47:44.819Z,997.56
2017-05-01T04:48:46.253Z,997.60
2017-05-01T04:49:47.684Z,997.59
2017-05-01T04:50:49.113Z,997.60
2017-05-01T04:51:50.543Z,997.59
2017-05-01T04:52:51.970Z,997.63
2017-05-01T04:53:53.405Z,997.67
2017-05-01T04:54:55.735Z,997.69
2017-05-01T04:55:57.169Z,997.70
2017-05-01T04:56:58.600Z,997.75
2017-05-01T04:58:00.023Z,997.79
2017-05-01T04:59:01.453Z,997.78
2017-05-01T05:00:02.881Z,997.80
2017-05-01T05:01:04.304Z,997.80
2017-05-01T05:02:05.736Z,997.83
2017-05-01T05:03:07.162Z,997.84
2017-05-01T05:04:08.593Z,997.84
2017-05-01T05:05:10.024Z,997.88
2017-05-01T05:06:11.459Z,997.92
2017-05-01T05:07:12.895Z,997.91
2017-05-01T05:08:14.320Z,997.95
2017-05-01T05:09:15.741Z,998.03
2017-05-01T05:10:17.174Z,998.05
2017-05-01T05:11:18.597Z,998.00
2017-05-01T05:12:20.033Z,998.01
2017-05-01T05:13:21.457Z,998.07
2017-05-01T05:14:22.884Z,998.11
2017-05-01T05:15:24.317Z,998.14
2017-05-01T05:16:25.741Z,998.13
2017-05-01T05:17:27.173Z,998.19
2017-05-01T05:18:28.599Z,998.17
2017-05-01T05:19:30.035Z,998.20
2017-05-01T05:20:31.465Z,998.14
2017-05-01T05:21:32.889Z,998.14
2017-05-01T05:22:34.318Z,998.20
2017-05-01T05:23:35.745Z,998.19
2017-05-01T05:24:37.173Z,998.20
2017-05-01T05:25:38.596Z,998.20
2017-05-01T05:26:40.022Z,998.24
2017-05-01T05:27:41.454Z,998.18
2017-05-01T05:28:42.894Z,998.16
2017-05-01T05:29:44.322Z,998.14
2017-05-01T05:30:45.762Z,998.16
2017-05-01T05:31:47.190Z,998.21
2017-05-01T05:32:48.625Z,998.19
2017-05-01T05:33:50.053Z,998.17
2017-05-01T05:34:51.483Z,998.21
2017-05-01T05:35:52.909Z,998.20
2017-05-01T05:36:54.337Z,998.25
2017-05-01T05:37:55.763Z,998.25
2017-05-01T05:38:57.209Z,998.28
2017-05-01T05:39:58.643Z,998.25
2017-05-01T05:41:00.075Z,998.26
2017-05-01T05:42:01.502Z,998.29
2017-05-01T05:43:02.927Z,998.32
2017-05-01T05:44:04.365Z,998.36
2017-05-01T05:45:06.624Z,998.42
2017-05-01T05:46:08.047Z,998.42
2017-05-01T05:47:09.478Z,998.40
2017-05-01T05:48:10.906Z,998.39
2017-05-01T05:49:12.343Z,998.43
2017-05-01T05:50:13.774Z,998.47
2017-05-01T05:51:15.202Z,998.47
2017-05-01T05:52:16.639Z,998.46
2017-05-01T05:53:18.062Z,998.48
2017-05-01T05:54:19.494Z,998.49
2017-05-01T05:55:20.921Z,998.48
2017-05-01T05:56:22.341Z,998.48
2017-05-01T05:57:23.776Z,998.50
2017-05-01T05:58:25.213Z,998.52
2017-05-01T05:59:26.640Z,998.49
2017-05-01T06:00:28.075Z,998.49
2017-05-01T06:01:29.500Z,998.57
2017-05-01T06:02:30.931Z,998.56
2017-05-01T06:03:32.353Z,998.58
2017-05-01T06:04:33.792Z,998.56
2017-05-01T06:05:35.208Z,998.58
2017-05-01T06:06:36.638Z,998.64
2017-05-01T06:07:38.071Z,998.61
2017-05-01T06:08:39.503Z,998.65
2017-05-01T06:09:40.932Z,998.70
2017-05-01T06:10:42.360Z,998.72
2017-05-01T06:11:43.793Z,998.76
2017-05-01T06:12:45.226Z,998.80
2017-05-01T06:13:46.656Z,998.81
2017-05-01T06:14:48.096Z,998.77
2017-05-01T06:15:49.530Z,998.80
2017-05-01T06:16:50.957Z,998.85
2017-05-01T06:17:52.391Z,998.87
2017-05-01T06:18:53.813Z,998.83
2017-05-01T06:19:55.244Z,998.84
2017-05-01T06:20:56.676Z,998.94
2017-05-01T06:21:58.109Z,998.92
2017-05-01T06:22:59.538Z,998.93
2017-05-01T06:24:00.977Z,998.88
2017-05-01T06:25:02.408Z,998.90
2017-05-01T06:26:03.836Z,998.90
2017-05-01T06:27:05.270Z,998.94
2017-05-01T06:28:06.708Z,998.92
2017-05-01T06:29:08.136Z,998.96
2017-05-01T06:30:09.566Z,999.02
2017-05-01T06:31:10.993Z,999.07
2017-05-01T06:32:12.430Z,999.03
2017-05-01T06:33:13.861Z,999.05
2017-05-01T06:34:15.291Z,999.08
2017-05-01T06:35:16.720Z,999.11
2017-05-01T06:36:18.152Z,999.10
2017-05-01T06:37:19.585Z,999.13
2017-05-01T06:38:21.027Z,999.17
2017-05-01T06:39:22.456Z,999.22
2017-05-01T06:40:23.898Z,999.26
2017-05-01T06:41:25.333Z,999.27
2017-05-01T06:42:26.760Z,999.29
2017-05-01T06:43:28.193Z,999.31
2017-05-01T06:44:29.625Z,999.31
2017-05-01T06:45:31.057Z,999.33
2017-05-01T06:46:32.488Z,999.37
2017-05-01T06:47:33.920Z,999.39
2017-05-01T06:48:35.378Z,999.41
2017-05-01T06:49:36.815Z,999.37
2017-05-01T06:50:38.248Z,999.38
2017-05-01T06:51:39.679Z,999.42
2017-05-01T06:52:41.137Z,999.40
2017-05-01T06:53:42.581Z,999.48
2017-05-01T06:54:44.008Z,999.50
2017-05-01T06:55:45.474Z,999.51
2017-05-01T06:56:46.908Z,999.56
2017-05-01T06:57:48.339Z,999.54
2017-05-01T06:58:49.775Z,999.55
2017-05-01T06:59:51.219Z,999.52
2017-05-01T07:00:52.654Z,999.59
2017-05-01T07:01:54.079Z,999.55
2017-05-01T07:02:55.521Z,999.62
2017-05-01T07:03:56.947Z,999.59
2017-05-01T07:04:58.396Z,999.61
2017-05-01T07:05:59.828Z,999.67
2017-05-01T07:07:01.270Z,999.66
2017-05-01T07:08:02.709Z,999.71
2017-05-01T07:09:04.141Z,999.69
2017-05-01T07:10:05.575Z,999.69
2017-05-01T07:11:07.031Z,999.71
2017-05-01T07:12:08.474Z,999.75
2017-05-01T07:13:09.908Z,999.74
2017-05-01T07:14:11.337Z,999.78
2017-05-01T07:15:12.770Z,999.80
2017-05-01T07:16:14.205Z,999.80
2017-05-01T07:17:15.655Z,999.77
2017-05-01T07:18:17.092Z,999.84
2017-05-01T07:19:18.530Z,999.84
2017-05-01T07:20:19.960Z,999.91
2017-05-01T07:21:21.385Z,999.92
2017-05-01T07:22:22.816Z,999.92
2017-05-01T07:23:24.268Z,999.94
2017-05-01T07:24:25.702Z,999.94
2017-05-01T07:25:27.145Z,999.92
2017-05-01T07:26:28.571Z,999.97
2017-05-01T07:27:30.014Z,1000.02
2017-05-01T07:28:31.568Z,999.98
2017-05-01T07:29:33.064Z,1000.01
2017-05-01T07:30:34.505Z,1000.00
2017-05-01T07:31:35.942Z,1000.00
2017-05-01T07:32:37.438Z,1000.03
2017-05-01T07:33:38.898Z,1000.03
2017-05-01T07:34:40.329Z,999.98
2017-05-01T07:35:41.761Z,1000.05
2017-05-01T07:36:43.193Z,1000.10
2017-05-01T07:37:44.629Z,1000.08
2017-05-01T07:38:46.063Z,1000.08
2017-05-01T07:39:47.494Z,1000.11
2017-05-01T07:40:48.957Z,1000.13
2017-05-01T07:41:50.395Z,1000.14
2017-05-01T07:42:51.833Z,1000.10
2017-05-01T07:43:53.268Z,1000.18
2017-05-01T07:44:54.711Z,1000.19
2017-05-01T07:45:56.135Z,1000.19
2017-05-01T07:46:57.576Z,1000.26
2017-05-01T07:47:59.018Z,1000.18
2017-05-01T07:49:00.470Z,1000.23
2017-05-01T07:50:01.901Z,1000.23
2017-05-01T07:51:03.348Z,1000.27
2017-05-01T07:52:04.871Z,1000.29
2017-05-01T07:53:06.305Z,1000.32
2017-05-01T07:54:07.741Z,1000.31
2017-05-01T07:55:09.176Z,1000.33
2017-05-01T07:56:10.621Z,1000.35
2017-05-01T07:57:12.056Z,1000.36
2017-05-01T07:58:13.502Z,1000.34
2017-05-01T07:59:14.942Z,1000.39
2017-05-01T08:00:16.382Z,1000.40
2017-05-01T08:01:17.817Z,1000.46
2017-05-01T08:02:19.252Z,1000.44
2017-05-01T08:03:20.685Z,1000.46
2017-05-01T08:04:22.119Z,1000.49
2017-05-01T08:05:23.553Z,1000.49
2017-05-01T08:06:25.090Z,1000.51
2017-05-01T08:07:26.522Z,1000.53
2017-05-01T08:08:27.954Z,1000.59
2017-05-01T08:09:29.385Z,1000.58
2017-05-01T08:10:30.823Z,1000.61
2017-05-01T08:11:32.253Z,1000.57
2017-05-01T08:12:33.820Z,1000.65
2017-05-01T08:13:35.253Z,1000.61
2017-05-01T08:14:36.687Z,1000.61
2017-05-01T08:15:38.123Z,1000.57
2017-05-01T08:16:39.558Z,1000.64
2017-05-01T08:17:41.004Z,1000.64
2017-05-01T08:18:42.901Z,1000.72
2017-05-01T08:19:44.350Z,1000.63
2017-05-01T08:20:45.789Z,1000.69
2017-05-01T08:21:47.222Z,1000.68
2017-05-01T08:22:48.658Z,1000.75
2017-05-01T08:23:50.087Z,1000.75
2017-05-01T08:24:51.534Z,1000.73
2017-05-01T08:25:52.972Z,1000.78
2017-05-01T08:26:54.403Z,1000.80
2017-05-01T08:27:55.847Z,1000.81
2017-05-01T08:28:57.274Z,1000.79
2017-05-01T08:29:58.711Z,1000.84
2017-05-01T08:31:00.146Z,1000.86
2017-05-01T08:32:01.582Z,1000.82
2017-05-01T08:33:03.011Z,1000.86
2017-05-01T08:34:04.440Z,1000.85
2017-05-01T08:35:05.874Z,1000.84
2017-05-01T08:36:07.315Z,1000.85
2017-05-01T08:37:08.751Z,1000.93
2017-05-01T08:38:10.185Z,1000.94
2017-05-01T08:39:11.622Z,1000.87
2017-05-01T08:40:13.058Z,1000.94
2017-05-01T08:41:14.493Z,1000.98
2017-05-01T08:42:15.925Z,1000.95
2017-05-01T08:43:17.355Z,1000.97
2017-05-01T08:44:18.792Z,1000.99
2017-05-01T08:45:20.223Z,1000.98
2017-05-01T08:46:21.660Z,1001.01
2017-05-01T08:47:23.097Z,1001.04
2017-05-01T08:48:24.539Z,1001.05
2017-05-01T08:49:25.978Z,1001.06
2017-05-01T08:50:27.403Z,1001.10
2017-05-01T08:51:28.837Z,1001.14
2017-05-01T08:52:30.271Z,1001.15
2017-05-01T08:53:31.717Z,1001.15
2017-05-01T08:54:33.148Z,1001.21
2017-05-01T08:55:34.579Z,1001.20
2017-05-01T08:56:36.006Z,1001.18
2017-05-01T08:57:37.451Z,1001.23
2017-05-01T08:58:38.885Z,1001.20
2017-05-01T08:59:40.320Z,1001.20
2017-05-01T09:00:41.751Z,1001.19
2017-05-01T09:01:43.187Z,1001.18
2017-05-01T09:02:44.616Z,1001.21
2017-05-01T09:03:46.052Z,1001.24
2017-05-01T09:04:47.487Z,1001.26
2017-05-01T09:05:48.917Z,1001.27
2017-05-01T09:06:50.338Z,1001.26
2017-05-01T09:07:51.796Z,1001.27
2017-05-01T09:08:53.235Z,1001.32
2017-05-01T09:09:54.667Z,1001.30
2017-05-01T09:10:56.098Z,1001.29
2017-05-01T09:11:57.528Z,1001.34
2017-05-01T09:12:58.958Z,1001.31
2017-05-01T09:14:00.399Z,1001.31
2017-05-01T09:15:01.838Z,1001.33
2017-05-01T09:16:03.275Z,1001.42
2017-05-01T09:17:04.711Z,1001.42
2017-05-01T09:18:06.140Z,1001.41
2017-05-01T09:19:07.614Z,1001.44
2017-05-01T09:20:09.047Z,1001.41
2017-05-01T09:21:10.479Z,1001.43
2017-05-01T09:22:11.910Z,1001.45
2017-05-01T09:23:13.395Z,1001.44
2017-05-01T09:24:14.824Z,1001.42
2017-05-01T09:25:16.261Z,1001.37
2017-05-01T09:26:17.696Z,1001.44
2017-05-01T09:27:19.156Z,1001.44
2017-05-01T09:28:20.591Z,1001.41
2017-05-01T09:29:22.030Z,1001.44
2017-05-01T09:30:23.468Z,1001.50
2017-05-01T09:31:24.910Z,1001.48
2017-05-01T09:32:26.348Z,1001.46
2017-05-01T09:33:27.788Z,1001.51
2017-05-01T09:34:29.288Z,1001.53
2017-05-01T09:35:30.719Z,1001.52
2017-05-01T09:36:32.149Z,1001.50
2017-05-01T09:37:33.572Z,1001.54
2017-05-01T09:38:35.010Z,1001.52
2017-05-01T09:39:36.447Z,1001.51
2017-05-01T09:40:37.878Z,1001.55
2017-05-01T09:41:39.312Z,1001.60
2017-05-01T09:42:40.747Z,1001.53
2017-05-01T09:43:42.178Z,1001.57
2017-05-01T09:44:43.615Z,1001.57
2017-05-01T09:45:45.157Z,1001.56
2017-05-01T09:46:46.585Z,1001.58
2017-05-01T09:47:48.017Z,1001.55
2017-05-01T09:48:49.455Z,1001.59
2017-05-01T09:49:50.947Z,1001.61
2017-05-01T09:50:52.397Z,1001.61
2017-05-01T09:51:53.828Z,1001.62
2017-05-01T09:52:55.307Z,1001.65
2017-05-01T09:53:56.747Z,1001.61
2017-05-01T09:54:58.184Z,1001.72
2017-05-01T09:55:59.616Z,1001.71
2017-05-01T09:57:01.062Z,1001.74
2017-05-01T09:58:02.486Z,1001.76
2017-05-01T09:59:03.920Z,1001.79
2017-05-01T10:00:05.359Z,1001.79
2017-05-01T10:01:06.791Z,1001.76
2017-05-01T10:02:08.227Z,1001.79
2017-05-01T10:03:09.658Z,1001.77
2017-05-01T10:04:11.105Z,1001.82
2017-05-01T10:05:12.530Z,1001.87
2017-05-01T10:06:13.971Z,1001.88
2017-05-01T10:07:15.402Z,1001.89
2017-05-01T10:08:16.941Z,1001.93
2017-05-01T10:09:18.371Z,1001.93
2017-05-01T10:10:19.803Z,1001.93
2017-05-01T10:11:21.271Z,1001.98
2017-05-01T10:12:22.710Z,1001.97
2017-05-01T10:13:24.134Z,1002.04
2017-05-01T10:14:25.577Z,1002.06
2017-05-01T10:15:27.013Z,1002.05
2017-05-01T10:16:28.448Z,1002.04
2017-05-01T10:17:29.881Z,1002.04
2017-05-01T10:18:31.311Z,1002.03
2017-05-01T10:19:32.740Z,1002.06
2017-05-01T10:20:34.168Z,1002.04
2017-05-01T10:21:35.601Z,1002.08
2017-05-01T10:22:37.036Z,1002.08
2017-05-01T10:23:38.464Z,1002.12
2017-05-01T10:24:39.917Z,1002.11
2017-05-01T10:25:41.349Z,1002.12
2017-05-01T10:26:42.784Z,1002.18
2017-05-01T10:27:44.217Z,1002.18
2017-05-01T10:28:45.658Z,1002.16
2017-05-01T10:29:47.098Z,1002.18
2017-05-01T10:30:48.538Z,1002.19
2017-05-01T10:31:49.976Z,1002.23
2017-05-01T10:32:51.407Z,1002.18
2017-05-01T10:33:52.833Z,1002.24
2017-05-01T10:34:54.273Z,1002.20
2017-05-01T10:35:55.699Z,1002.24
2017-05-01T10:36:57.128Z,1002.24
2017-05-01T10:37:58.548Z,1002.29
2017-05-01T10:38:59.985Z,1002.26
2017-05-01T10:40:01.416Z,1002.24
2017-05-01T10:41:02.850Z,1002.25
2017-05-01T10:42:04.301Z,1002.26
2017-05-01T10:43:05.734Z,1002.27
2017-05-01T10:44:07.171Z,1002.29
2017-05-01T10:45:08.602Z,1002.26
2017-05-01T10:46:10.045Z,1002.26
2017-05-01T10:47:11.475Z,1002.23
2017-05-01T10:48:12.905Z,1002.23
2017-05-01T10:49:14.342Z,1002.28
2017-05-01T10:50:15.769Z,1002.29
2017-05-01T10:51:17.201Z,1002.28
2017-05-01T10:52:18.631Z,1002.31
2017-05-01T10:53:20.080Z,1002.30
2017-05-01T10:54:21.505Z,1002.30
2017-05-01T10:55:22.944Z,1002.32
2017-05-01T10:56:24.366Z,1002.32
2017-05-01T10:57:25.811Z,1002.30
2017-05-01T10:58:27.257Z,1002.27
2017-05-01T10:59:28.687Z,1002.33
2017-05-01T11:00:30.122Z,1002.29
2017-05-01T11:01:31.569Z,1002.27
2017-05-01T11:02:32.996Z,1002.27
2017-05-01T11:03:34.428Z,1002.34
2017-05-01T11:04:35.860Z,1002.30
2017-05-01T11:05:37.295Z,1002.34
2017-05-01T11:06:38.730Z,1002.36
2017-05-01T11:07:40.176Z,1002.38
2017-05-01T11:08:41.610Z,1002.42
2017-05-01T11:09:43.042Z,1002.39
2017-05-01T11:10:44.475Z,1002.39
2017-05-01T11:11:45.902Z,1002.44
2017-05-01T11:12:47.338Z,1002.49
2017-05-01T11:13:48.770Z,1002.53
2017-05-01T11:14:50.197Z,1002.52
2017-05-01T11:15:51.641Z,1002.53
2017-05-01T11:16:53.074Z,1002.49
2017-05-01T11:17:54.512Z,1002.51
2017-05-01T11:18:56.726Z,1002.57
2017-05-01T11:19:57.354Z,1002.59
2017-05-01T11:20:58.785Z,1002.60
2017-05-01T11:22:00.224Z,1002.61
2017-05-01T11:23:01.649Z,1002.66
2017-05-01T11:24:03.096Z,1002.67
2017-05-01T11:25:04.542Z,1002.61
2017-05-01T11:26:05.983Z,1002.64
2017-05-01T11:27:07.405Z,1002.65
2017-05-01T11:28:08.836Z,1002.61
2017-05-01T11:29:10.271Z,1002.59
2017-05-01T11:30:11.713Z,1002.68
2017-05-01T11:31:13.154Z,1002.66
2017-05-01T11:32:14.579Z,1002.65
2017-05-01T11:33:16.011Z,1002.65
2017-05-01T11:34:17.458Z,1002.67
2017-05-01T11:35:18.888Z,1002.68
2017-05-01T11:36:20.326Z,1002.72
2017-05-01T11:37:21.759Z,1002.69
2017-05-01T11:38:23.187Z,1002.68
2017-05-01T11:39:24.619Z,1002.69
2017-05-01T11:40:26.045Z,1002.70
2017-05-01T11:41:27.485Z,1002.73
2017-05-01T11:42:28.923Z,1002.69
2017-05-01T11:43:30.359Z,1002.71
2017-05-01T11:44:31.796Z,1002.71
2017-05-01T11:45:33.243Z,1002.74
2017-05-01T11:46:34.670Z,1002.71
2017-05-01T11:47:36.127Z,1002.75
2017-05-01T11:48:37.567Z,1002.72
2017-05-01T11:49:39.011Z,1002.67
2017-05-01T11:50:40.440Z,1002.80
2017-05-01T11:51:41.879Z,1002.82
2017-05-01T11:52:43.313Z,1002.86
2017-05-01T11:53:44.756Z,1002.82
2017-05-01T11:54:46.180Z,1002.83
2017-05-01T11:55:47.618Z,1002.88
2017-05-01T11:56:49.066Z,1002.86
2017-05-01T11:57:50.505Z,1002.87
2017-05-01T11:58:51.935Z,1002.91
2017-05-01T11:59:53.406Z,1002.88
2017-05-01T12:00:54.852Z,1002.87
2017-05-01T12:01:56.285Z,1002.88
2017-05-01T12:02:57.717Z,1002.92
2017-05-01T12:03:59.161Z,1002.89
2017-05-01T12:05:00.600Z,1002.91
2017-05-01T12:06:02.031Z,1002.96
2017-05-01T12:07:03.494Z,1002.97
2017-05-01T12:08:04.989Z,1002.97
2017-05-01T12:09:06.421Z,1002.93
2017-05-01T12:10:07.848Z,1002.98
2017-05-01T12:11:09.278Z,1003.01
2017-05-01T12:12:10.716Z,1002.99
2017-05-01T12:13:12.150Z,1003.04
2017-05-01T12:14:13.627Z,1002.99
2017-05-01T12:15:15.060Z,1003.08
2017-05-01T12:16:16.488Z,1003.09
2017-05-01T12:17:17.921Z,1003.08
2017-05-01T12:18:19.385Z,1003.07
2017-05-01T12:19:20.809Z,1003.13
2017-05-01T12:20:22.250Z,1003.16
2017-05-01T12:21:23.677Z,1003.18
2017-05-01T12:22:25.119Z,1003.18
2017-05-01T12:23:27.264Z,1003.14
2017-05-01T12:24:28.714Z,1003.17
2017-05-01T12:25:30.148Z,1003.17
2017-05-01T12:26:31.595Z,1003.20
2017-05-01T12:27:33.027Z,1003.18
2017-05-01T12:28:34.463Z,1003.22
2017-05-01T12:29:35.910Z,1003.21
2017-05-01T12:30:37.346Z,1003.23
2017-05-01T12:31:38.787Z,1003.23
2017-05-01T12:32:40.230Z,1003.21
2017-05-01T12:33:41.671Z,1003.24
2017-05-01T12:34:43.127Z,1003.21
2017-05-01T12:35:44.563Z,1003.16
2017-05-01T12:36:46.001Z,1003.17
2017-05-01T12:37:47.427Z,1003.21
2017-05-01T12:38:48.869Z,1003.23